Terminal Aerodrome Forecast
Issued by NWS

Home | Current Version | Previous Version | Text Only | Print | Product List | Glossary On
Versions: 1 2 3 4 5 6 7 8 9 10 11 12
000
FTUS45 KRIW 110529
TAFLND
TAF
KLND 110529Z 1106/1206 25007KT P6SM BKN090
     FM111100 26008KT P6SM SCT080
     FM111400 VRB06KT P6SM SCT080
     FM112300 27012KT P6SM SCT080=

USA.gov is the U.S. government's official web portal to all federal, state and local government web resources and services.